Terminal Aerodrome Forecast
Issued by NWS

Home | Current Version | Previous Version | Text Only | Print | Product List | Glossary On
Versions: 1 2 3 4 5 6 7 8 9 10 11 12 13 14 15 16 17 18 19 20 21 22 23 24 25 26 27 28 29 30 31 32 33 34 35 36 37 38 39 40 41 42 43 44 45 46 47
000
FTUS45 KBOU 022327
TAFAPA
TAF
KAPA 022327Z 0300/0324 07007KT P6SM VCTS SCT070CB BKN120
     FM030300 14008KT P6SM SCT080 BKN140
     FM030600 20008KT P6SM SCT120 BKN200
     FM031400 VRB06KT P6SM FEW080 SCT120 BKN200
     FM032200 09006KT P6SM VCTS FEW080CB BKN140 PROB30 0322/0324
      VRB20G32KT -TSRA BKN080CB=

USA.gov is the U.S. government's official web portal to all federal, state and local government web resources and services.